Lake Linganore, Maryland
Current Conditions -  °F | °C
As of 10:45 AM on Saturday 25 Oct 2014 (Local Time) from KFDK Reporting Station
Clear Clear  
Wind Chill: 66°   Ceiling: Unl
Heat Index: 66°   Visibility: 10mi
Dew Point: 41°   Wind: 12mph
Humidity: 40%   Direction: 240°WSW
Pressure: 29.97"   Gusts: NA
Location:  39.4015°N, 77.2845°W
Report Text: KFDK 251445Z 24010KT 10SM SKC 19/05 A2997
Loading
Personal Weather Stations






























Interactive Weather Map
Tropical Storm Tracking
New forecast layout! Learn more

10-Day Weather Forecast

Advertisements
Track Severe Weather on mobile